Time;durP1;ratioP1;P1;durP2;ratioP2;P2;SDS_P1;SDS_P2;PMS_P1;PMS_P2;Temp;Humidity;BMP_temperature;BMP_pressure;BME280_temperature;BME280_humidity;BME280_pressure;Samples;Min_cycle;Max_cycle;Signal;HPM_P1;HPM_P2
2021/03/27 00:03:09;;;;;;;48.80;22.73;;;;;;;6.32;82.38;101485.84;6288525;28;20222;-73
2021/03/27 00:06:22;;;;;;;47.60;22.37;;;;;;;6.39;82.63;101494.94;6287139;28;20187;-73
2021/03/27 00:09:37;;;;;;;47.27;23.03;;;;;;;6.44;82.68;101481.72;6286075;28;20438;-73
2021/03/27 00:12:48;;;;;;;44.07;21.80;;;;;;;6.26;83.18;101488.22;6286765;28;20280;-72
2021/03/27 00:15:59;;;;;;;51.43;22.47;;;;;;;6.41;82.72;101484.78;6287243;28;20218;-73
2021/03/27 00:19:08;;;;;;;50.83;22.43;;;;;;;6.44;82.11;101485.28;6288349;28;20231;-73
2021/03/27 00:22:22;;;;;;;49.67;21.87;;;;;;;6.46;82.47;101485.94;6287953;28;20215;-73
2021/03/27 00:25:30;;;;;;;46.93;22.20;;;;;;;6.42;82.68;101481.06;6287853;28;20193;-73
2021/03/27 00:28:42;;;;;;;50.30;23.07;;;;;;;6.41;82.33;101480.19;6287757;28;20218;-72
2021/03/27 00:31:50;;;;;;;46.07;21.90;;;;;;;6.38;82.37;101468.84;6286572;28;20223;-73
2021/03/27 00:35:00;;;;;;;45.47;22.23;;;;;;;6.32;83.01;101465.81;6287569;28;20194;-73
2021/03/27 00:38:12;;;;;;;55.80;22.93;;;;;;;6.30;82.96;101478.72;6287542;28;20259;-73
2021/03/27 00:41:23;;;;;;;45.57;22.20;;;;;;;6.39;82.71;101470.56;6287428;28;20191;-73
2021/03/27 00:44:31;;;;;;;50.47;22.73;;;;;;;6.35;82.44;101452.94;6287652;28;20187;-73
2021/03/27 00:47:38;;;;;;;46.07;21.63;;;;;;;6.42;82.57;101453.94;6287425;28;20187;-73
2021/03/27 00:50:46;;;;;;;52.23;23.07;;;;;;;6.44;82.57;101462.75;6286445;28;20187;-72
2021/03/27 00:53:54;;;;;;;51.27;22.73;;;;;;;6.43;82.49;101455.63;6269662;28;20209;-73
2021/03/27 00:57:02;;;;;;;51.83;22.90;;;;;;;6.28;82.74;101448.22;6269327;28;20249;-73
2021/03/27 01:00:15;;;;;;;53.77;22.00;;;;;;;6.27;83.47;101443.81;6260395;28;20231;-73
2021/03/27 01:03:45;;;;;;;51.23;23.43;;;;;;;6.30;82.77;101445.34;6261209;28;20244;-73
2021/03/27 01:07:12;;;;;;;52.37;22.60;;;;;;;6.15;83.73;101441.66;6261465;28;20487;-73
2021/03/27 01:10:37;;;;;;;50.87;22.90;;;;;;;6.25;83.38;101445.88;6261406;28;20187;-73
2021/03/27 01:14:02;;;;;;;49.33;21.93;;;;;;;6.24;82.75;101441.44;6262373;28;20258;-73
2021/03/27 01:17:08;;;;;;;49.37;22.40;;;;;;;6.34;82.62;101445.84;6262441;28;20195;-73
2021/03/27 01:20:23;;;;;;;48.77;21.97;;;;;;;6.32;82.67;101442.47;6261204;28;20233;-72
2021/03/27 01:23:31;;;;;;;53.37;22.50;;;;;;;6.19;83.07;101438.41;6266014;28;20248;-74
2021/03/27 01:26:41;;;;;;;46.73;22.33;;;;;;;6.13;83.97;101441.84;6266159;28;20188;-74
2021/03/27 01:29:52;;;;;;;45.53;21.57;;;;;;;6.01;83.76;101440.50;6267577;28;20233;-73
2021/03/27 01:33:02;;;;;;;52.53;21.90;;;;;;;6.06;83.99;101438.13;6267052;28;20195;-73
2021/03/27 01:36:13;;;;;;;52.50;22.33;;;;;;;6.12;83.64;101432.00;6267109;28;20220;-73
2021/03/27 01:39:21;;;;;;;56.30;22.53;;;;;;;6.04;83.65;101439.31;6266918;28;20197;-73
2021/03/27 01:42:39;;;;;;;50.13;22.87;;;;;;;6.09;83.88;101437.78;6266775;28;20219;-73
2021/03/27 01:46:15;;;;;;;54.53;22.00;;;;;;;6.10;83.55;101439.47;6266706;28;20188;-74
2021/03/27 01:49:29;;;;;;;58.73;23.00;;;;;;;6.06;83.68;101427.28;6266983;28;20187;-73
2021/03/27 01:52:53;;;;;;;51.60;22.27;;;;;;;6.03;83.96;101443.91;6266862;28;20236;-74
2021/03/27 01:56:17;;;;;;;54.73;21.87;;;;;;;6.00;84.41;101433.41;6266788;28;20186;-73
2021/03/27 01:59:26;;;;;;;51.37;22.80;;;;;;;5.92;84.48;101430.72;6269235;28;20237;-74
2021/03/27 02:02:45;;;;;;;46.87;22.40;;;;;;;5.91;83.87;101412.75;6291566;28;20214;-73
2021/03/27 02:05:55;;;;;;;49.90;21.43;;;;;;;6.10;83.96;101434.06;6074036;29;20267;-78
2021/03/27 02:09:09;;;;;;;57.00;22.73;;;;;;;6.17;83.68;101429.63;6075571;29;20193;-77
2021/03/27 02:12:29;;;;;;;60.07;22.80;;;;;;;6.04;83.23;101410.38;6075639;29;20200;-78
2021/03/27 02:15:48;;;;;;;50.03;22.57;;;;;;;6.19;83.08;101433.00;6075274;29;20191;-77
2021/03/27 02:19:06;;;;;;;53.07;22.80;;;;;;;6.19;83.43;101438.41;6074590;29;20567;-77
2021/03/27 02:22:25;;;;;;;50.23;21.80;;;;;;;6.06;83.88;101427.28;6075106;29;20219;-78
2021/03/27 02:25:53;;;;;;;51.83;23.27;;;;;;;6.07;84.13;101444.38;6074605;29;20200;-77
2021/03/27 02:29:08;;;;;;;53.90;22.53;;;;;;;6.07;84.10;101444.38;6067539;29;20252;-77
2021/03/27 02:32:18;;;;;;;49.10;22.43;;;;;;;6.07;83.76;101439.81;6074069;29;20396;-76
2021/03/27 02:35:34;;;;;;;49.33;22.47;;;;;;;5.90;84.18;101421.94;6074964;29;20260;-77
2021/03/27 02:38:53;;;;;;;50.17;23.37;;;;;;;5.94;84.34;101423.25;6074447;29;20241;-76
2021/03/27 02:42:04;;;;;;;55.30;23.33;;;;;;;6.02;83.73;101415.13;6073754;29;20246;-78
2021/03/27 02:45:14;;;;;;;55.60;23.63;;;;;;;6.05;83.73;101424.75;6074427;29;20193;-76
2021/03/27 02:48:32;;;;;;;54.53;23.13;;;;;;;5.84;84.61;101425.28;6074310;29;20193;-77
2021/03/27 02:51:42;;;;;;;55.17;22.80;;;;;;;5.14;84.77;101312.38;6073367;29;20301;-77
2021/03/27 02:54:54;;;;;;;54.17;23.27;;;;;;;5.60;85.57;101409.06;6074713;29;20255;-77
2021/03/27 02:58:07;;;;;;;59.80;24.67;;;;;;;5.81;85.05;101422.91;6074655;29;20234;-77
2021/03/27 03:01:14;;;;;;;54.30;24.83;;;;;;;5.75;84.75;101418.19;6073642;29;20421;-77
2021/03/27 03:04:32;;;;;;;53.20;23.13;;;;;;;5.85;84.73;101421.59;6073961;29;20270;-77
2021/03/27 03:07:45;;;;;;;55.50;24.53;;;;;;;5.76;84.74;101414.47;6075214;29;20528;-77
2021/03/27 03:10:57;;;;;;;64.00;24.53;;;;;;;5.74;84.50;101405.66;6074055;29;20230;-78
2021/03/27 03:14:07;;;;;;;58.17;24.33;;;;;;;5.81;84.32;101417.50;6072360;29;20570;-77
2021/03/27 03:17:19;;;;;;;53.30;22.67;;;;;;;5.79;84.39;101402.44;6074524;29;20223;-77
2021/03/27 03:20:31;;;;;;;52.50;22.90;;;;;;;5.79;84.55;101414.13;6072698;29;20193;-77
2021/03/27 03:23:54;;;;;;;50.23;22.13;;;;;;;5.80;84.63;101415.81;6073611;29;20242;-77
2021/03/27 03:27:10;;;;;;;52.90;22.57;;;;;;;5.85;84.05;101413.47;6073466;29;20253;-77
2021/03/27 03:30:26;;;;;;;63.83;25.53;;;;;;;5.75;84.96;101412.78;6072709;29;20381;-77
2021/03/27 03:33:51;;;;;;;50.73;21.97;;;;;;;5.85;84.70;101420.75;6073933;29;20196;-77
2021/03/27 03:37:07;;;;;;;55.37;23.30;;;;;;;5.83;84.07;101417.34;6072444;29;20360;-77
2021/03/27 03:40:23;;;;;;;53.63;21.57;;;;;;;5.86;83.93;101388.06;6073525;29;20397;-76
2021/03/27 03:43:33;;;;;;;58.10;22.13;;;;;;;5.96;84.17;101410.38;6073628;29;20284;-77
2021/03/27 03:46:48;;;;;;;51.73;22.47;;;;;;;5.91;84.57;101404.63;6073780;29;20225;-76
2021/03/27 03:50:10;;;;;;;54.33;23.40;;;;;;;5.91;84.47;101407.34;6073276;29;20199;-77
2021/03/27 03:53:32;;;;;;;55.53;22.57;;;;;;;5.94;84.27;101401.59;6072072;29;20219;-76
2021/03/27 03:56:45;;;;;;;49.20;21.93;;;;;;;5.94;84.48;101395.31;6073281;29;20264;-77
2021/03/27 03:59:54;;;;;;;51.37;20.80;;;;;;;6.00;84.29;101400.91;6073260;29;20193;-78
2021/03/27 04:03:09;;;;;;;43.30;20.63;;;;;;;6.14;83.87;101396.59;6071977;29;20283;-76
2021/03/27 04:06:19;;;;;;;44.03;18.50;;;;;;;5.94;84.27;101389.91;6072412;29;20193;-77
2021/03/27 04:09:28;;;;;;;41.90;19.30;;;;;;;5.99;84.11;101382.94;6072943;29;20193;-76
2021/03/27 04:12:36;;;;;;;40.33;18.30;;;;;;;6.20;83.66;101407.59;6072860;29;20203;-77
2021/03/27 04:15:44;;;;;;;48.13;18.20;;;;;;;6.27;83.23;101408.59;6072447;29;20241;-76
2021/03/27 04:18:55;;;;;;;39.73;18.60;;;;;;;6.25;83.27;101410.63;6072661;29;20338;-76
2021/03/27 04:22:09;;;;;;;43.37;18.37;;;;;;;6.25;83.31;101420.63;6072541;29;20235;-76
2021/03/27 04:25:34;;;;;;;40.43;18.97;;;;;;;6.18;83.49;101404.22;6072189;29;20196;-76
2021/03/27 04:28:53;;;;;;;39.97;18.40;;;;;;;6.25;83.38;101399.81;6101692;29;20210;-76
2021/03/27 04:32:22;;;;;;;42.37;18.27;;;;;;;6.19;83.85;101405.91;6072653;29;20193;-78
2021/03/27 04:35:51;;;;;;;39.83;18.70;;;;;;;6.21;83.56;101409.28;6072514;29;20201;-77
2021/03/27 04:38:59;;;;;;;44.43;18.50;;;;;;;6.19;83.51;101395.06;6072186;29;20198;-77
2021/03/27 04:42:11;;;;;;;39.87;17.73;;;;;;;6.10;83.18;101374.47;6072496;29;20235;-76
2021/03/27 04:45:24;;;;;;;44.23;18.73;;;;;;;6.11;83.45;101381.53;6073073;29;20192;-78
2021/03/27 04:48:38;;;;;;;36.73;18.17;;;;;;;6.20;83.81;101391.34;6071790;29;20227;-77
2021/03/27 04:52:07;;;;;;;43.57;18.00;;;;;;;6.22;83.16;101378.47;6072567;29;20194;-78
2021/03/27 04:55:23;;;;;;;40.30;18.67;;;;;;;6.28;83.65;101394.03;6072963;29;20196;-77
2021/03/27 04:58:37;;;;;;;42.60;18.17;;;;;;;6.24;83.45;101398.09;6073379;29;20243;-77
2021/03/27 05:01:50;;;;;;;37.50;18.33;;;;;;;6.05;83.99;101366.00;6072978;29;20209;-78
2021/03/27 05:05:01;;;;;;;43.90;19.27;;;;;;;6.15;83.87;101374.78;6073496;29;20248;-77
2021/03/27 05:08:14;;;;;;;43.27;18.33;;;;;;;6.32;83.21;101384.53;6074118;29;20193;-76
2021/03/27 05:11:25;;;;;;;42.57;18.30;;;;;;;6.53;82.39;101399.31;6076854;29;20193;-76
2021/03/27 05:14:52;;;;;;;39.40;18.73;;;;;;;6.34;82.81;101388.94;6075125;29;20294;-77
2021/03/27 05:18:33;;;;;;;46.47;18.83;;;;;;;6.38;83.32;101392.97;6063694;29;20451;-76
2021/03/27 05:22:15;;;;;;;45.27;18.17;;;;;;;6.47;82.51;101386.50;6063943;29;20232;-77
2021/03/27 05:25:31;;;;;;;43.93;18.20;;;;;;;6.40;83.02;101385.50;6071935;29;20257;-77
2021/03/27 05:29:07;;;;;;;40.67;19.17;;;;;;;6.23;83.32;101363.91;6071557;29;20320;-78
2021/03/27 05:32:32;;;;;;;44.77;19.27;;;;;;;6.32;83.28;101377.44;6071368;29;20194;-77
2021/03/27 05:35:43;;;;;;;43.90;18.83;;;;;;;6.16;84.08;101371.03;6071596;29;20273;-77
2021/03/27 05:38:56;;;;;;;41.43;19.37;;;;;;;6.13;84.28;101384.09;6070610;29;20193;-77
2021/03/27 05:42:36;;;;;;;39.00;17.87;;;;;;;6.12;84.49;101367.00;6071579;29;20193;-77
2021/03/27 05:46:17;;;;;;;43.10;18.43;;;;;;;6.09;84.68;101378.19;6071349;29;20234;-77
2021/03/27 05:49:46;;;;;;;43.57;19.20;;;;;;;6.14;84.29;101373.06;6070599;29;20194;-77
2021/03/27 05:53:05;;;;;;;38.50;18.07;;;;;;;6.10;84.03;101363.63;6070004;29;20390;-77
2021/03/27 05:56:39;;;;;;;39.80;19.37;;;;;;;6.23;83.42;101374.75;6070061;29;20213;-77
2021/03/27 06:00:17;;;;;;;42.77;18.33;;;;;;;6.30;83.11;101381.16;6071190;29;20224;-77
2021/03/27 06:03:47;;;;;;;40.67;19.00;;;;;;;6.46;82.84;101384.78;6064780;29;20334;-77
2021/03/27 06:07:17;;;;;;;44.13;19.63;;;;;;;6.55;82.01;101381.03;6071069;29;20244;-77
2021/03/27 06:10:37;;;;;;;37.37;18.20;;;;;;;6.57;81.85;101387.13;6075566;29;20254;-78
2021/03/27 06:13:50;;;;;;;51.90;20.07;;;;;;;6.65;81.07;101378.94;6076265;29;20198;-78
2021/03/27 06:17:18;;;;;;;39.93;18.77;;;;;;;6.78;80.39;101390.03;6076477;29;20201;-78
2021/03/27 06:20:51;;;;;;;40.63;19.17;;;;;;;6.61;80.32;101366.75;6078768;29;20216;-77
2021/03/27 06:24:08;;;;;;;40.47;18.47;;;;;;;6.73;80.24;101387.00;6077079;29;20221;-76
2021/03/27 06:27:31;;;;;;;41.77;18.60;;;;;;;6.75;79.99;101384.97;6074570;29;20432;-77
2021/03/27 06:31:11;;;;;;;39.00;17.77;;;;;;;6.82;79.76;101377.81;6076856;29;20253;-77
2021/03/27 06:34:52;;;;;;;39.57;17.73;;;;;;;6.83;79.33;101383.03;6076378;29;20217;-77
2021/03/27 06:39:00;;;;;;;36.77;16.90;;;;;;;6.86;78.44;101376.41;6073625;29;20242;-78
2021/03/27 06:42:27;;;;;;;32.10;16.20;;;;;;;6.85;78.06;101367.47;6073574;29;20495;-77
2021/03/27 06:45:55;;;;;;;31.60;15.40;;;;;;;7.14;76.81;101384.88;6074817;29;20221;-77
2021/03/27 06:49:32;;;;;;;35.83;15.43;;;;;;;7.34;75.38;101369.78;6072738;29;20240;-77
2021/03/27 06:53:19;;;;;;;28.97;14.10;;;;;;;7.47;74.90;101370.81;6075850;29;20191;-78
2021/03/27 06:56:38;;;;;;;27.70;13.90;;;;;;;7.64;74.41;101384.25;6049350;29;20486;-76
2021/03/27 07:00:27;;;;;;;28.80;14.37;;;;;;;7.89;73.21;101375.66;6048740;29;20194;-77
2021/03/27 07:04:24;;;;;;;28.90;14.87;;;;;;;7.93;72.69;101359.84;6033632;29;20305;-77
2021/03/27 07:08:01;;;;;;;31.00;14.07;;;;;;;8.08;71.83;101379.72;6049431;29;20302;-77
2021/03/27 07:11:40;;;;;;;39.65;14.38;;;;;;;8.25;71.57;101381.19;6042591;29;20287;-77
2021/03/27 07:15:16;;;;;;;33.57;14.10;;;;;;;8.19;71.27;101360.22;6046728;29;20215;-79
2021/03/27 07:18:56;;;;;;;25.90;13.52;;;;;;;8.40;70.51;101373.91;6048332;29;20191;-78
2021/03/27 07:22:21;;;;;;;36.40;15.00;;;;;;;8.57;69.89;101379.97;6047413;29;20259;-77
2021/03/27 07:25:51;;;;;;;31.23;14.30;;;;;;;8.55;69.40;101371.16;6048634;29;20219;-77
2021/03/27 07:29:49;;;;;;;39.38;14.63;;;;;;;8.44;69.43;101375.22;6072547;29;20386;-77
2021/03/27 07:33:24;;;;;;;25.27;13.95;;;;;;;8.48;69.68;101371.06;6050898;29;20206;-78
2021/03/27 07:36:39;;;;;;;28.88;13.70;;;;;;;8.45;69.15;101355.13;6073541;29;20271;-77
2021/03/27 07:40:01;;;;;;;35.38;13.60;;;;;;;8.58;68.91;101368.91;6075224;29;20197;-78
2021/03/27 07:43:44;;;;;;;29.95;13.73;;;;;;;8.71;67.93;101371.78;6076324;29;20238;-78
2021/03/27 07:47:44;;;;;;;29.95;13.07;;;;;;;8.63;68.06;101357.44;6104515;29;20250;-77
2021/03/27 07:51:01;;;;;;;29.48;13.30;;;;;;;8.86;67.71;101362.72;6040022;29;20231;-78
2021/03/27 07:54:54;;;;;;;27.05;12.10;;;;;;;8.81;67.00;101350.53;6052301;29;20230;-78
2021/03/27 07:58:21;;;;;;;28.40;12.00;;;;;;;8.86;66.90;101339.06;6074536;29;20255;-78
2021/03/27 08:01:34;;;;;;;27.88;12.18;;;;;;;9.04;66.33;101357.69;6064600;29;20218;-77
2021/03/27 08:05:17;;;;;;;27.27;13.00;;;;;;;9.01;65.91;101344.47;6073179;29;20273;-77
2021/03/27 08:08:59;;;;;;;28.88;12.32;;;;;;;9.14;65.27;101350.03;6076147;29;20210;-78
2021/03/27 08:12:57;;;;;;;30.98;11.70;;;;;;;9.17;65.29;101344.19;6075810;29;20196;-79
2021/03/27 08:16:22;;;;;;;29.13;12.32;;;;;;;9.06;65.09;101325.66;6073144;29;20221;-78
2021/03/27 08:19:44;;;;;;;31.25;10.85;;;;;;;9.13;64.65;101337.44;6074777;29;20226;-78
2021/03/27 08:23:29;;;;;;;32.20;11.25;;;;;;;9.12;64.13;101319.41;6075307;29;20191;-79
2021/03/27 08:26:59;;;;;;;36.40;10.40;;;;;;;9.33;63.59;101330.28;6060589;29;20215;-78
2021/03/27 08:30:40;;;;;;;24.20;10.68;;;;;;;9.34;63.70;101324.66;6072716;29;20206;-78
2021/03/27 08:34:39;;;;;;;28.38;10.52;;;;;;;9.27;63.47;101285.63;6075552;29;20241;-78
2021/03/27 08:38:21;;;;;;;27.25;10.63;;;;;;;9.52;62.60;101326.91;6072105;29;20419;-79
2021/03/27 08:41:49;;;;;;;25.60;10.65;;;;;;;9.58;63.06;101312.47;6071906;29;20198;-77
2021/03/27 08:45:11;;;;;;;22.60;10.75;;;;;;;9.67;62.62;101322.19;6072124;29;20214;-77
2021/03/27 08:48:52;;;;;;;22.60;11.00;;;;;;;9.72;61.65;101316.97;6072387;29;20190;-77
2021/03/27 08:52:05;;;;;;;20.77;10.98;;;;;;;9.60;61.78;101302.22;6072613;29;20190;-77
2021/03/27 08:55:36;;;;;;;25.33;11.43;;;;;;;9.73;61.51;101318.63;6071917;29;20194;-77
2021/03/27 08:59:05;;;;;;;32.17;11.35;;;;;;;9.76;61.49;101307.34;6071045;29;20266;-77
2021/03/27 09:02:49;;;;;;;25.65;11.93;;;;;;;9.87;61.42;101309.53;6072327;29;20191;-78
2021/03/27 09:06:29;;;;;;;17.75;10.32;;;;;;;9.62;60.91;101267.44;6068715;29;20263;-78
2021/03/27 09:09:54;;;;;;;24.30;10.43;;;;;;;10.07;60.16;101299.56;6072888;29;20190;-79
2021/03/27 09:13:38;;;;;;;20.00;8.63;;;;;;;10.12;58.84;101300.84;6072381;29;20238;-79
2021/03/27 09:17:09;;;;;;;14.75;8.60;;;;;;;10.25;58.60;101300.91;6072877;29;20191;-80
2021/03/27 09:20:25;;;;;;;17.48;7.47;;;;;;;9.87;58.78;101241.38;6071874;29;20261;-78
2021/03/27 09:23:36;;;;;;;13.00;7.20;;;;;;;10.28;57.89;101289.59;6072682;29;20290;-79
2021/03/27 09:26:51;;;;;;;14.82;6.20;;;;;;;10.28;57.46;101267.78;6071721;29;20418;-78
2021/03/27 09:30:11;;;;;;;9.93;5.32;;;;;;;9.97;57.91;101230.94;6072323;29;20199;-77
2021/03/27 09:33:26;;;;;;;13.00;5.20;;;;;;;10.28;57.41;101267.78;6073269;29;20499;-75
2021/03/27 09:36:41;;;;;;;5.22;3.88;;;;;;;10.41;57.00;101273.28;6073893;29;20257;-76
2021/03/27 09:39:54;;;;;;;11.88;3.25;;;;;;;10.20;55.95;101221.59;6074386;29;20254;-79
2021/03/27 09:43:27;;;;;;;11.55;3.58;;;;;;;9.73;56.11;101132.53;6105367;29;20214;-78
2021/03/27 09:46:42;;;;;;;8.75;2.95;;;;;;;10.26;56.62;101232.53;6077463;29;20197;-77
2021/03/27 09:49:59;;;;;;;5.18;3.05;;;;;;;9.78;55.21;101117.25;6078576;29;20190;-78
2021/03/27 09:53:11;;;;;;;11.93;2.92;;;;;;;10.50;54.64;101233.88;6078052;29;20190;-78
2021/03/27 09:56:24;;;;;;;3.47;2.67;;;;;;;10.65;54.37;101259.09;6077942;29;20195;-77
2021/03/27 09:59:37;;;;;;;6.38;2.80;;;;;;;10.72;54.25;101275.44;6077963;29;20194;-78
2021/03/27 10:02:50;;;;;;;6.93;2.33;;;;;;;10.60;54.25;101212.47;6107464;29;20454;-77
2021/03/27 10:05:57;;;;;;;5.78;2.65;;;;;;;10.90;54.21;101246.50;6076065;29;20218;-78
2021/03/27 10:09:09;;;;;;;6.85;3.50;;;;;;;10.97;53.63;101230.13;6076192;29;20191;-78
2021/03/27 10:12:18;;;;;;;17.90;5.00;;;;;;;10.98;54.13;101243.56;6074196;29;20552;-78
2021/03/27 10:15:30;;;;;;;14.30;6.63;;;;;;;11.06;54.50;101243.38;6076946;29;20452;-76
2021/03/27 10:18:37;;;;;;;20.38;8.88;;;;;;;11.00;55.55;101230.56;6074405;29;20213;-77
2021/03/27 10:21:47;;;;;;;19.30;9.77;;;;;;;10.98;56.83;101237.28;6074211;29;20398;-78
2021/03/27 10:24:59;;;;;;;24.02;10.95;;;;;;;11.05;56.83;101227.19;6075864;29;20266;-76
2021/03/27 10:28:32;;;;;;;19.88;11.15;;;;;;;11.10;57.74;101236.44;6075383;29;20236;-77
2021/03/27 10:31:41;;;;;;;25.98;13.65;;;;;;;11.14;58.50;101221.31;6079185;29;20197;-78
2021/03/27 10:34:49;;;;;;;26.95;12.75;;;;;;;11.28;58.39;101222.97;6077545;29;20244;-77
2021/03/27 10:38:02;;;;;;;28.05;13.20;;;;;;;11.18;58.83;101200.72;6076796;29;20191;-77
2021/03/27 10:41:18;;;;;;;22.95;12.48;;;;;;;11.09;58.94;101191.03;6080782;29;20197;-78
2021/03/27 10:44:32;;;;;;;30.75;14.48;;;;;;;11.32;59.08;101232.41;6078170;29;20218;-78
2021/03/27 10:47:46;;;;;;;27.02;14.05;;;;;;;11.26;59.62;101230.53;6078034;29;20197;-78
2021/03/27 10:51:04;;;;;;;28.48;13.80;;;;;;;11.31;59.83;101228.00;6078635;29;20222;-79
2021/03/27 10:54:39;;;;;;;22.98;13.15;;;;;;;11.43;58.80;101220.00;6078059;29;20194;-79
2021/03/27 10:58:06;;;;;;;24.63;12.43;;;;;;;11.20;58.61;101182.22;6107467;29;20258;-78
2021/03/27 11:01:48;;;;;;;27.50;13.85;;;;;;;11.45;58.84;101211.59;6105420;29;20213;-78
2021/03/27 11:05:18;;;;;;;29.52;14.80;;;;;;;11.36;59.77;101212.88;6076669;29;20238;-78
2021/03/27 11:09:15;;;;;;;30.80;15.25;;;;;;;11.37;59.23;101201.75;6076442;29;20230;-78
2021/03/27 11:12:42;;;;;;;34.05;15.35;;;;;;;11.32;59.83;101207.81;6050604;29;20191;-77
2021/03/27 11:16:07;;;;;;;35.72;15.82;;;;;;;11.36;59.43;101204.66;6048414;29;20249;-78
2021/03/27 11:19:36;;;;;;;39.50;16.83;;;;;;;11.22;59.76;101201.94;6051265;29;20191;-78
2021/03/27 11:23:14;;;;;;;39.35;16.98;;;;;;;11.23;59.68;101198.19;6051934;29;20494;-78
2021/03/27 11:26:42;;;;;;;31.83;17.30;;;;;;;11.26;60.53;101186.84;6051618;29;20218;-78
2021/03/27 11:29:59;;;;;;;45.80;18.83;;;;;;;11.23;60.24;101179.06;6050220;29;20459;-78
2021/03/27 11:33:14;;;;;;;46.55;21.17;;;;;;;11.30;60.61;101199.00;6049491;29;20616;-77
2021/03/27 11:36:23;;;;;;;42.95;21.17;;;;;;;11.23;60.55;101165.41;6049933;29;20210;-78
2021/03/27 11:39:41;;;;;;;52.97;22.13;;;;;;;11.10;60.86;101176.34;6050560;29;20195;-78
2021/03/27 11:42:57;;;;;;;46.60;23.90;;;;;;;11.13;61.83;101186.84;6061848;29;20514;-78
2021/03/27 11:46:07;;;;;;;63.00;26.48;;;;;;;11.03;63.02;101186.44;6072812;29;20233;-77
2021/03/27 11:49:19;;;;;;;58.95;27.50;;;;;;;10.97;62.72;101181.81;6076540;29;20213;-77
2021/03/27 11:52:29;;;;;;;63.55;30.00;;;;;;;10.81;64.05;101182.25;6075406;29;20206;-77
2021/03/27 11:55:38;;;;;;;64.97;30.67;;;;;;;10.82;64.35;101162.09;6075660;29;20257;-78
2021/03/27 12:02:39;;;;;;;63.88;31.27;;;;;;;11.17;62.74;101166.25;6072644;29;20259;-78
2021/03/27 12:05:50;;;;;;;68.38;32.25;;;;;;;11.08;63.96;101145.69;6073578;29;20242;-78
2021/03/27 12:09:10;;;;;;;73.45;36.47;;;;;;;11.11;64.04;101133.50;6074059;29;20745;-78
2021/03/27 12:12:34;;;;;;;72.97;39.07;;;;;;;11.33;63.05;101141.22;6073538;29;20748;-79
2021/03/27 12:15:47;;;;;;;64.75;31.52;;;;;;;11.39;61.74;101141.41;6074039;29;20592;-80
2021/03/27 12:19:03;;;;;;;75.70;32.63;;;;;;;11.17;62.09;101133.47;6074993;29;20257;-80
2021/03/27 12:22:17;;;;;;;68.25;32.88;;;;;;;11.37;61.66;101143.53;6073702;29;20198;-77
2021/03/27 12:25:33;;;;;;;84.93;32.03;;;;;;;11.22;61.96;101125.47;6074853;29;20225;-80
2021/03/27 12:28:52;;;;;;;72.10;31.83;;;;;;;11.35;61.51;101145.63;6074708;29;20198;-79
2021/03/27 12:32:23;;;;;;;80.53;32.95;;;;;;;11.36;61.49;101130.91;6073576;29;20516;-80
2021/03/27 12:35:31;;;;;;;74.68;33.60;;;;;;;11.00;62.10;101104.97;6074626;29;20194;-80
2021/03/27 12:39:04;;;;;;;67.97;32.25;;;;;;;10.74;62.51;101065.94;6074499;29;20291;-79
2021/03/27 12:42:15;;;;;;;67.88;32.95;;;;;;;11.24;62.60;101133.47;6075758;29;20209;-79
2021/03/27 12:45:25;;;;;;;76.25;34.72;;;;;;;11.21;62.05;101126.56;6075001;29;20218;-80
2021/03/27 12:48:39;;;;;;;75.47;34.25;;;;;;;11.24;61.83;101111.63;6074708;29;20197;-80
2021/03/27 12:51:47;;;;;;;73.45;35.17;;;;;;;11.21;62.11;101118.34;6073864;29;20229;-80
2021/03/27 12:55:00;;;;;;;76.93;36.47;;;;;;;11.17;62.40;101111.63;6074855;29;20201;-81
2021/03/27 12:58:31;;;;;;;77.10;37.78;;;;;;;11.21;62.62;101101.13;6073877;29;20197;-79
2021/03/27 13:02:00;;;;;;;77.07;38.17;;;;;;;11.36;62.49;101107.16;6075846;29;20191;-80
2021/03/27 13:05:17;;;;;;;89.45;39.67;;;;;;;11.30;61.68;101076.09;6074170;29;20576;-80
2021/03/27 13:08:36;;;;;;;80.22;38.10;;;;;;;11.48;61.75;101101.88;6074693;29;20224;-80
2021/03/27 13:11:48;;;;;;;81.32;40.75;;;;;;;11.45;61.44;101113.25;6073886;29;20197;-80
2021/03/27 13:15:27;;;;;;;84.82;42.17;;;;;;;11.48;61.59;101096.41;6073199;29;20269;-80
2021/03/27 13:18:44;;;;;;;82.85;40.80;;;;;;;11.33;62.22;101105.69;6080442;29;20254;-79
2021/03/27 13:22:09;;;;;;;89.65;43.38;;;;;;;11.24;62.47;101085.16;6080383;29;20191;-78
2021/03/27 13:25:21;;;;;;;93.38;42.63;;;;;;;11.30;62.80;101095.19;6078527;29;20255;-79
2021/03/27 13:28:32;;;;;;;91.72;44.13;;;;;;;11.20;62.88;101089.34;6077179;29;20455;-78
2021/03/27 13:31:41;;;;;;;89.45;44.13;;;;;;;11.11;62.96;101095.28;6078403;29;20225;-79
2021/03/27 13:34:54;;;;;;;89.22;45.17;;;;;;;11.06;63.29;101095.94;6078187;29;20293;-78
2021/03/27 13:38:03;;;;;;;92.68;45.30;;;;;;;11.06;62.84;101071.34;6078629;29;20191;-79
2021/03/27 13:41:54;;;;;;;88.20;44.30;;;;;;;11.12;63.12;101075.94;6105488;29;20191;-78
2021/03/27 13:45:15;;;;;;;93.38;46.78;;;;;;;11.12;62.93;101059.53;6078347;29;20270;-78
2021/03/27 13:48:37;;;;;;;92.00;47.90;;;;;;;10.99;63.43;101062.31;6077370;29;20196;-78
2021/03/27 13:51:47;;;;;;;96.00;47.55;;;;;;;10.90;63.61;101077.25;6076814;29;20190;-79
2021/03/27 13:54:54;;;;;;;100.32;48.25;;;;;;;11.03;63.21;101066.31;6077901;29;20222;-78
2021/03/27 13:58:21;;;;;;;101.45;49.72;;;;;;;10.93;63.70;101076.84;6077567;29;20197;-76
2021/03/27 14:01:30;;;;;;;114.80;52.50;;;;;;;10.93;64.21;101076.84;6078218;29;20218;-77
2021/03/27 14:04:40;;;;;;;107.38;51.65;;;;;;;10.85;64.48;101068.88;6079072;29;20242;-78
2021/03/27 14:07:47;;;;;;;90.93;47.72;;;;;;;10.46;64.82;101025.28;6077894;29;20237;-79
2021/03/27 14:11:00;;;;;;;103.55;48.10;;;;;;;10.91;63.72;101078.94;6077965;29;20222;-77
2021/03/27 14:14:09;;;;;;;97.78;48.42;;;;;;;10.89;63.89;101081.03;6077734;29;20190;-78
2021/03/27 14:17:30;;;;;;;96.38;48.65;;;;;;;10.71;64.20;101056.28;6076696;29;20195;-78
2021/03/27 14:20:44;;;;;;;111.63;49.88;;;;;;;10.54;64.48;101071.44;6076642;29;20197;-78
2021/03/27 14:24:23;;;;;;;97.57;48.95;;;;;;;10.28;66.11;101087.78;6076958;29;20194;-78
2021/03/27 14:27:36;;;;;;;106.45;49.78;;;;;;;10.24;66.28;101075.63;6076670;29;20523;-78
2021/03/27 14:30:52;;;;;;;101.60;49.47;;;;;;;9.83;66.11;100989.41;6076394;29;20205;-78
2021/03/27 14:34:32;;;;;;;97.45;48.10;;;;;;;10.30;65.99;101064.72;6076319;29;20198;-78
2021/03/27 14:37:40;;;;;;;102.57;48.88;;;;;;;10.37;65.47;101054.66;6075007;29;20243;-77
2021/03/27 14:40:52;;;;;;;105.95;48.80;;;;;;;10.34;65.45;101070.59;6075094;29;20191;-76
2021/03/27 14:44:04;;;;;;;100.72;47.38;;;;;;;10.40;65.63;101058.88;6074019;29;20194;-76
2021/03/27 14:48:01;;;;;;;102.20;48.25;;;;;;;10.40;65.70;101058.88;6074544;29;20258;-77
2021/03/27 14:51:11;;;;;;;104.07;47.33;;;;;;;10.28;65.73;101041.44;6047577;29;20238;-76
2021/03/27 14:54:36;;;;;;;95.93;47.88;;;;;;;10.37;66.16;101059.28;6048298;29;20282;-77
2021/03/27 14:57:46;;;;;;;108.80;49.88;;;;;;;10.39;65.93;101047.09;6048120;29;20499;-76
2021/03/27 15:01:01;;;;;;;100.82;48.42;;;;;;;10.29;65.95;101051.31;6048284;29;20287;-76
2021/03/27 15:04:17;;;;;;;107.78;49.25;;;;;;;10.29;65.71;101056.75;6048892;29;20242;-77
2021/03/27 15:07:23;;;;;;;107.75;49.63;;;;;;;9.98;66.02;101011.84;6048752;29;20263;-77
2021/03/27 15:10:43;;;;;;;99.72;49.03;;;;;;;9.94;67.49;101065.06;6048803;29;20271;-77
2021/03/27 15:13:55;;;;;;;104.60;47.45;;;;;;;9.90;66.82;101043.91;6049494;29;20191;-78
2021/03/27 15:17:15;;;;;;;105.70;48.05;;;;;;;9.95;66.65;101049.56;6049047;29;20195;-78
2021/03/27 15:20:26;;;;;;;107.50;47.28;;;;;;;9.85;67.00;101049.13;6049544;29;20423;-77
2021/03/27 15:23:43;;;;;;;107.07;48.15;;;;;;;9.58;68.08;101044.69;6074217;29;20221;-78